Terminal Aerodrome Forecast
Issued by NWS Jackson, KY

Home | Current Version | Previous Version | Text Only | Print | Product List | Glossary On
Versions: 1 2 3 4 5 6 7 8 9 10 11 12 13 14 15 16 17 18 19 20 21
702
FTUS43 KJKL 042039 AAG
TAFJKL
TAF AMD
KJKL 042039Z 0421/0518 05003KT 3SM -RA BR VCSH FEW022 OVC030
     FM042300 VRB03KT P6SM VCSH OVC025
     FM050100 VRB02KT P6SM VCSH OVC015
     FM050300 00000KT 5SM BR VCSH OVC008
     FM050700 00000KT 3SM -DZ BR OVC005
     FM051200 00000KT P6SM OVC015=

USA.gov is the U.S. government's official web portal to all federal, state and local government web resources and services.